Time;durP1;ratioP1;P1;durP2;ratioP2;P2;SDS_P1;SDS_P2;PMS_P1;PMS_P2;Temp;Humidity;BMP_temperature;BMP_pressure;BME280_temperature;BME280_humidity;BME280_pressure;Samples;Min_cycle;Max_cycle;Signal;HPM_P1;HPM_P2
2022/11/01 00:01:12;;;;;;;74.07;19.20;;;;;;;;;;6625660;28;20179;-81
2022/11/01 00:04:22;;;;;;;52.33;19.17;;;;;;;;;;6625616;28;20175;-81
2022/11/01 00:07:32;;;;;;;71.23;18.87;;;;;;;;;;6625610;28;20195;-81
2022/11/01 00:10:43;;;;;;;57.20;18.60;;;;;;;;;;6625745;28;20590;-79
2022/11/01 00:13:53;;;;;;;97.20;22.07;;;;;;;;;;6625367;28;20175;-79
2022/11/01 00:17:03;;;;;;;53.27;18.33;;;;;;;;;;6624940;28;20172;-79
2022/11/01 00:20:14;;;;;;;52.57;18.80;;;;;;;;;;6625613;28;20172;-80
2022/11/01 00:23:24;;;;;;;50.47;19.23;;;;;;;;;;6625063;28;20172;-80
2022/11/01 00:26:34;;;;;;;50.23;18.97;;;;;;;;;;6625136;28;20183;-80
2022/11/01 00:29:45;;;;;;;54.83;19.03;;;;;;;;;;6624992;28;20182;-80
2022/11/01 00:32:56;;;;;;;93.37;19.70;;;;;;;;;;6625186;28;20192;-80
2022/11/01 00:36:07;;;;;;;53.80;20.97;;;;;;;;;;6624476;28;20642;-80
2022/11/01 00:39:17;;;;;;;57.60;20.50;;;;;;;;;;6624769;28;20210;-81
2022/11/01 00:42:27;;;;;;;55.47;20.30;;;;;;;;;;6625432;28;20182;-80
2022/11/01 00:45:37;;;;;;;169.83;24.87;;;;;;;;;;6624790;28;20167;-81
2022/11/01 00:48:48;;;;;;;58.97;19.97;;;;;;;;;;6624101;28;20174;-81
2022/11/01 00:51:58;;;;;;;121.87;22.43;;;;;;;;;;6623950;28;20283;-82
2022/11/01 00:55:08;;;;;;;124.53;21.60;;;;;;;;;;6606401;28;20179;-82
2022/11/01 00:58:19;;;;;;;99.97;20.47;;;;;;;;;;6624256;28;20223;-81
2022/11/01 01:01:31;;;;;;;94.33;20.63;;;;;;;;;;6623854;28;20271;-81
2022/11/01 01:04:42;;;;;;;78.00;20.17;;;;;;;;;;6623622;28;20178;-81
2022/11/01 01:07:52;;;;;;;82.23;20.67;;;;;;;;;;6623912;28;20188;-81
2022/11/01 01:11:02;;;;;;;45.43;18.50;;;;;;;;;;6623412;28;20208;-80
2022/11/01 01:14:13;;;;;;;43.13;17.93;;;;;;;;;;6623820;28;20234;-81
2022/11/01 01:17:23;;;;;;;53.90;17.07;;;;;;;;;;6623730;28;20168;-81
2022/11/01 01:20:34;;;;;;;72.70;18.83;;;;;;;;;;6624055;28;20179;-81
2022/11/01 01:23:45;;;;;;;39.80;17.43;;;;;;;;;;6623608;28;20168;-81
2022/11/01 01:26:56;;;;;;;56.27;17.63;;;;;;;;;;6623478;28;20522;-81
2022/11/01 01:30:09;;;;;;;29.13;16.30;;;;;;;;;;6623346;28;20168;-80
2022/11/01 01:33:19;;;;;;;88.67;19.87;;;;;;;;;;6623708;28;20182;-80
2022/11/01 01:36:29;;;;;;;48.87;16.27;;;;;;;;;;6623291;28;20171;-80
2022/11/01 01:39:40;;;;;;;29.53;16.27;;;;;;;;;;6623607;28;20734;-80
2022/11/01 01:42:50;;;;;;;63.90;17.93;;;;;;;;;;6623519;28;20168;-80
2022/11/01 01:46:01;;;;;;;58.60;17.33;;;;;;;;;;6622703;28;20172;-80
2022/11/01 01:49:11;;;;;;;61.93;15.27;;;;;;;;;;6623342;28;20203;-80
2022/11/01 01:52:22;;;;;;;47.27;15.00;;;;;;;;;;6623194;28;20556;-80
2022/11/01 01:55:47;;;;;;;45.83;15.40;;;;;;;;;;6622585;28;20182;-80
2022/11/01 01:59:02;;;;;;;40.33;14.60;;;;;;;;;;6622215;28;20318;-80
2022/11/01 02:02:13;;;;;;;41.93;15.37;;;;;;;;;;6622445;28;20175;-80
2022/11/01 02:05:37;;;;;;;35.77;14.63;;;;;;;;;;6622750;28;20175;-80
2022/11/01 02:08:50;;;;;;;80.93;17.17;;;;;;;;;;6622289;28;20196;-81
2022/11/01 02:12:01;;;;;;;65.53;15.63;;;;;;;;;;6622140;28;20286;-81
2022/11/01 02:15:12;;;;;;;46.60;15.17;;;;;;;;;;6622103;28;20628;-81
2022/11/01 02:18:42;;;;;;;63.33;14.63;;;;;;;;;;6622862;28;20249;-81
2022/11/01 02:21:59;;;;;;;50.60;15.87;;;;;;;;;;6622171;28;20188;-81
2022/11/01 02:25:28;;;;;;;57.40;16.47;;;;;;;;;;6622060;28;20168;-81
2022/11/01 02:28:38;;;;;;;45.80;14.93;;;;;;;;;;6622810;28;20517;-81
2022/11/01 02:31:57;;;;;;;54.33;16.60;;;;;;;;;;6623011;28;20207;-81
2022/11/01 02:35:29;;;;;;;59.17;17.57;;;;;;;;;;6605495;28;20612;-81
2022/11/01 02:38:51;;;;;;;48.43;16.30;;;;;;;;;;6605250;28;20612;-81
2022/11/01 02:42:14;;;;;;;69.20;17.40;;;;;;;;;;6622249;28;20329;-81
2022/11/01 02:45:27;;;;;;;48.03;15.83;;;;;;;;;;6622544;28;20585;-81
2022/11/01 02:48:38;;;;;;;67.20;16.83;;;;;;;;;;6621757;28;20566;-81
2022/11/01 02:51:49;;;;;;;87.27;18.67;;;;;;;;;;6622168;28;20346;-81
2022/11/01 02:55:00;;;;;;;41.90;16.73;;;;;;;;;;6622396;28;20183;-81
2022/11/01 02:58:13;;;;;;;44.03;15.40;;;;;;;;;;6622600;28;20303;-81
2022/11/01 03:01:25;;;;;;;65.00;16.03;;;;;;;;;;6621990;28;20254;-80
2022/11/01 03:04:36;;;;;;;50.57;13.87;;;;;;;;;;6604033;28;20652;-80
2022/11/01 03:07:48;;;;;;;42.37;14.57;;;;;;;;;;6621735;28;20192;-79
2022/11/01 03:11:04;;;;;;;74.53;15.87;;;;;;;;;;6621404;28;20318;-80
2022/11/01 03:14:22;;;;;;;51.20;15.10;;;;;;;;;;6621755;28;20168;-80
2022/11/01 03:17:39;;;;;;;84.90;17.23;;;;;;;;;;6605177;28;20624;-80
2022/11/01 03:20:58;;;;;;;65.27;15.27;;;;;;;;;;6621816;28;20290;-80
2022/11/01 03:24:34;;;;;;;50.67;14.07;;;;;;;;;;6622314;28;20160;-80
2022/11/01 03:27:45;;;;;;;51.10;15.27;;;;;;;;;;6592439;28;20184;-80
2022/11/01 03:30:58;;;;;;;68.70;15.07;;;;;;;;;;6626753;28;20613;-80
2022/11/01 03:34:14;;;;;;;61.63;14.00;;;;;;;;;;6626347;28;20187;-80
2022/11/01 03:37:26;;;;;;;76.53;14.57;;;;;;;;;;6625932;28;20568;-80
2022/11/01 03:40:40;;;;;;;40.60;15.23;;;;;;;;;;6626249;28;20202;-80
2022/11/01 03:43:50;;;;;;;34.90;13.80;;;;;;;;;;6626880;28;20255;-80
2022/11/01 03:47:01;;;;;;;29.57;11.53;;;;;;;;;;6625836;28;20176;-80
2022/11/01 03:50:11;;;;;;;55.33;14.07;;;;;;;;;;6625589;28;20160;-80
2022/11/01 03:53:22;;;;;;;31.93;14.87;;;;;;;;;;6625938;28;20679;-80
2022/11/01 03:56:33;;;;;;;51.67;13.47;;;;;;;;;;6625471;28;20213;-80
2022/11/01 03:59:43;;;;;;;32.30;14.47;;;;;;;;;;6625792;28;20215;-80
2022/11/01 04:02:54;;;;;;;35.90;14.07;;;;;;;;;;6625319;28;20218;-80
2022/11/01 04:06:05;;;;;;;33.77;13.97;;;;;;;;;;6625237;28;20171;-80
2022/11/01 04:09:15;;;;;;;40.87;14.83;;;;;;;;;;6625107;28;20211;-80
2022/11/01 04:12:25;;;;;;;36.13;14.43;;;;;;;;;;6624967;28;20249;-81
2022/11/01 04:22:34;;;;;;;43.00;15.70;;;;;;;;;;6624891;28;20204;-80
2022/11/01 04:25:48;;;;;;;33.80;14.33;;;;;;;;;;6625046;28;20171;-80
2022/11/01 04:28:58;;;;;;;37.03;13.60;;;;;;;;;;6624689;28;20179;-80
2022/11/01 04:32:08;;;;;;;40.80;14.67;;;;;;;;;;6624915;28;20203;-80
2022/11/01 04:35:19;;;;;;;35.40;14.10;;;;;;;;;;6624954;28;20186;-80
2022/11/01 04:38:29;;;;;;;44.90;14.33;;;;;;;;;;6624211;28;20251;-80
2022/11/01 04:41:39;;;;;;;45.03;13.40;;;;;;;;;;6624459;28;20179;-80
2022/11/01 04:44:49;;;;;;;59.57;14.23;;;;;;;;;;6624226;28;20164;-80
2022/11/01 04:48:11;;;;;;;64.70;14.93;;;;;;;;;;6624167;28;20179;-81
2022/11/01 04:51:21;;;;;;;53.37;12.73;;;;;;;;;;6624320;28;20557;-80
2022/11/01 04:54:32;;;;;;;71.07;13.40;;;;;;;;;;6624360;28;20164;-80
2022/11/01 04:57:43;;;;;;;61.00;13.77;;;;;;;;;;6624628;28;20226;-80
2022/11/01 05:00:53;;;;;;;42.40;14.03;;;;;;;;;;6624240;28;20180;-81
2022/11/01 05:04:03;;;;;;;56.50;14.37;;;;;;;;;;6623738;28;20171;-81
2022/11/01 05:07:14;;;;;;;76.30;15.13;;;;;;;;;;6624544;28;20245;-82
2022/11/01 05:10:25;;;;;;;125.67;17.47;;;;;;;;;;6623936;28;20172;-81
2022/11/01 05:13:35;;;;;;;23.93;14.07;;;;;;;;;;6623506;28;20171;-81
2022/11/01 05:16:45;;;;;;;38.40;16.17;;;;;;;;;;6624196;28;20255;-81
2022/11/01 05:19:55;;;;;;;40.13;17.67;;;;;;;;;;6624094;28;20226;-81
2022/11/01 05:23:06;;;;;;;41.67;17.50;;;;;;;;;;6624390;28;20538;-81
2022/11/01 05:26:16;;;;;;;63.60;18.03;;;;;;;;;;6623952;28;20178;-81
2022/11/01 05:29:26;;;;;;;41.33;16.80;;;;;;;;;;6623452;28;20175;-81
2022/11/01 05:32:37;;;;;;;39.23;17.57;;;;;;;;;;6622976;28;20294;-81
2022/11/01 05:35:47;;;;;;;37.67;16.37;;;;;;;;;;6623023;28;20163;-81
2022/11/01 05:38:58;;;;;;;34.83;17.20;;;;;;;;;;6623142;28;20172;-81
2022/11/01 05:42:08;;;;;;;35.07;14.43;;;;;;;;;;6623192;28;20171;-81
2022/11/01 05:45:18;;;;;;;32.10;15.07;;;;;;;;;;6623076;28;20260;-81
2022/11/01 05:48:29;;;;;;;34.73;16.13;;;;;;;;;;6623133;28;20168;-81
2022/11/01 05:51:39;;;;;;;33.83;15.73;;;;;;;;;;6604607;28;20565;-81
2022/11/01 05:54:49;;;;;;;43.93;14.37;;;;;;;;;;6622965;28;20199;-81
2022/11/01 05:58:00;;;;;;;30.47;16.70;;;;;;;;;;6622226;28;20226;-81
2022/11/01 06:01:10;;;;;;;44.23;16.10;;;;;;;;;;6623103;28;20175;-82
2022/11/01 06:04:21;;;;;;;48.77;16.10;;;;;;;;;;6622661;28;20167;-82
2022/11/01 06:07:33;;;;;;;30.80;14.53;;;;;;;;;;6622596;28;20188;-81
2022/11/01 06:10:43;;;;;;;26.60;14.77;;;;;;;;;;6622101;28;20563;-81
2022/11/01 06:13:57;;;;;;;36.30;14.53;;;;;;;;;;6622501;28;20183;-81
2022/11/01 06:17:11;;;;;;;29.27;18.90;;;;;;;;;;6622426;28;20535;-81
2022/11/01 06:20:21;;;;;;;26.97;15.43;;;;;;;;;;6622807;28;20179;-82
2022/11/01 06:23:32;;;;;;;33.70;13.90;;;;;;;;;;6622099;28;20268;-83
2022/11/01 06:26:42;;;;;;;28.93;20.10;;;;;;;;;;6623072;28;20229;-81
2022/11/01 06:29:53;;;;;;;30.40;15.40;;;;;;;;;;6621985;28;20176;-81
2022/11/01 06:33:03;;;;;;;51.60;18.77;;;;;;;;;;6622231;28;20239;-82
2022/11/01 06:36:13;;;;;;;98.30;18.03;;;;;;;;;;6622308;28;20180;-81
2022/11/01 06:39:23;;;;;;;68.00;15.37;;;;;;;;;;6622199;28;20204;-81
2022/11/01 06:42:34;;;;;;;64.43;15.40;;;;;;;;;;6622214;28;20218;-81
2022/11/01 06:45:44;;;;;;;59.30;14.47;;;;;;;;;;6622164;28;20172;-81
2022/11/01 06:48:54;;;;;;;53.67;12.73;;;;;;;;;;6622077;28;20172;-81
2022/11/01 06:52:05;;;;;;;59.20;13.83;;;;;;;;;;6622916;28;20556;-81
2022/11/01 06:55:16;;;;;;;72.03;13.63;;;;;;;;;;6622112;28;20268;-81
2022/11/01 06:58:26;;;;;;;91.37;15.47;;;;;;;;;;6622184;28;20273;-82
2022/11/01 07:01:37;;;;;;;81.23;17.50;;;;;;;;;;6621936;28;20528;-82
2022/11/01 07:04:47;;;;;;;36.67;15.63;;;;;;;;;;6626544;28;20172;-81
2022/11/01 07:07:57;;;;;;;31.43;15.57;;;;;;;;;;6609814;28;20192;-81
2022/11/01 07:11:08;;;;;;;23.53;14.40;;;;;;;;;;6626879;28;20286;-81
2022/11/01 07:14:18;;;;;;;28.73;14.30;;;;;;;;;;6626874;28;20195;-80
2022/11/01 07:17:28;;;;;;;39.80;13.93;;;;;;;;;;6626415;28;20163;-81
2022/11/01 07:20:41;;;;;;;28.87;15.03;;;;;;;;;;6626798;28;20172;-81
2022/11/01 07:23:53;;;;;;;21.23;13.90;;;;;;;;;;6626707;28;20254;-82
2022/11/01 07:27:03;;;;;;;28.57;15.10;;;;;;;;;;6626474;28;20262;-82
2022/11/01 07:30:13;;;;;;;20.13;14.67;;;;;;;;;;6626428;28;20178;-81
2022/11/01 07:33:24;;;;;;;21.47;14.80;;;;;;;;;;6626332;28;20561;-81
2022/11/01 07:36:34;;;;;;;21.40;14.10;;;;;;;;;;6626379;28;20195;-81
2022/11/01 07:39:44;;;;;;;19.17;13.50;;;;;;;;;;6626611;28;20171;-81
2022/11/01 07:42:57;;;;;;;20.03;14.03;;;;;;;;;;6626195;28;20167;-81
2022/11/01 07:46:07;;;;;;;30.83;16.73;;;;;;;;;;6625877;28;20263;-81
2022/11/01 07:49:17;;;;;;;24.10;16.57;;;;;;;;;;6626221;28;20176;-82
2022/11/01 07:52:27;;;;;;;23.03;16.37;;;;;;;;;;6625472;28;20199;-81
2022/11/01 07:55:38;;;;;;;22.00;15.37;;;;;;;;;;6625839;28;20168;-82
2022/11/01 07:58:48;;;;;;;23.80;15.20;;;;;;;;;;6625211;28;20215;-81
2022/11/01 08:01:59;;;;;;;21.30;13.83;;;;;;;;;;6625931;28;20294;-82
2022/11/01 08:05:10;;;;;;;20.10;14.47;;;;;;;;;;6625391;28;20168;-81
2022/11/01 08:08:21;;;;;;;18.03;13.90;;;;;;;;;;6625797;28;20278;-81
2022/11/01 08:11:31;;;;;;;23.47;14.93;;;;;;;;;;6625087;28;20679;-81
2022/11/01 08:14:41;;;;;;;23.17;14.70;;;;;;;;;;6624880;28;20168;-81
2022/11/01 08:17:53;;;;;;;25.57;15.53;;;;;;;;;;6625691;28;20195;-82
2022/11/01 08:21:06;;;;;;;25.67;16.43;;;;;;;;;;6624411;28;20186;-82
2022/11/01 08:24:17;;;;;;;23.17;16.17;;;;;;;;;;6624720;28;20168;-82
2022/11/01 08:27:27;;;;;;;23.70;15.83;;;;;;;;;;6624160;28;20180;-81
2022/11/01 08:30:39;;;;;;;22.70;16.67;;;;;;;;;;6624465;28;20171;-81
2022/11/01 08:33:49;;;;;;;22.17;15.63;;;;;;;;;;6625243;28;20218;-80
2022/11/01 08:37:00;;;;;;;21.77;15.27;;;;;;;;;;6624592;28;20620;-80
2022/11/01 08:40:10;;;;;;;20.53;14.70;;;;;;;;;;6624752;28;20520;-80
2022/11/01 08:43:21;;;;;;;26.33;15.93;;;;;;;;;;6624910;28;20175;-80
2022/11/01 08:46:31;;;;;;;22.43;15.97;;;;;;;;;;6624049;28;20175;-80
2022/11/01 08:49:41;;;;;;;21.50;15.47;;;;;;;;;;6624155;28;20178;-80
2022/11/01 08:52:52;;;;;;;21.47;15.60;;;;;;;;;;6624842;28;20280;-80
2022/11/01 08:56:02;;;;;;;22.37;16.40;;;;;;;;;;6623851;28;20621;-80
2022/11/01 08:59:12;;;;;;;24.57;17.03;;;;;;;;;;6624349;28;20222;-80
2022/11/01 09:02:23;;;;;;;20.93;15.40;;;;;;;;;;6606216;28;20245;-80
2022/11/01 09:05:34;;;;;;;26.30;16.93;;;;;;;;;;6623684;28;20211;-80
2022/11/01 09:08:44;;;;;;;19.93;14.47;;;;;;;;;;6623815;28;20192;-79
2022/11/01 09:11:55;;;;;;;21.43;16.03;;;;;;;;;;6623094;28;20199;-80
2022/11/01 09:15:05;;;;;;;22.40;15.93;;;;;;;;;;6624428;28;20176;-80
2022/11/01 09:18:15;;;;;;;18.77;14.27;;;;;;;;;;6624050;28;20172;-80
2022/11/01 09:21:29;;;;;;;30.63;19.40;;;;;;;;;;6623353;28;20180;-80
2022/11/01 09:24:39;;;;;;;22.60;16.73;;;;;;;;;;6623391;28;20172;-81
2022/11/01 09:27:49;;;;;;;24.07;16.57;;;;;;;;;;6605587;28;20179;-81
2022/11/01 09:31:00;;;;;;;21.40;16.60;;;;;;;;;;6623454;28;20622;-81
2022/11/01 09:34:11;;;;;;;20.10;15.33;;;;;;;;;;6622560;28;20175;-82
2022/11/01 09:37:22;;;;;;;18.70;15.50;;;;;;;;;;6623088;28;20230;-81
2022/11/01 09:40:42;;;;;;;20.10;15.40;;;;;;;;;;6623344;28;20168;-81
2022/11/01 09:43:53;;;;;;;19.60;15.67;;;;;;;;;;6604831;28;20182;-80
2022/11/01 09:47:07;;;;;;;20.10;15.77;;;;;;;;;;6622283;28;20175;-81
2022/11/01 09:50:22;;;;;;;22.20;17.07;;;;;;;;;;6623240;28;20519;-81
2022/11/01 09:53:33;;;;;;;19.57;16.57;;;;;;;;;;6623052;28;20215;-81
2022/11/01 09:56:50;;;;;;;20.67;15.87;;;;;;;;;;6605163;28;20247;-81
2022/11/01 10:00:03;;;;;;;19.87;16.40;;;;;;;;;;6597491;28;20263;-81
2022/11/01 10:03:16;;;;;;;19.57;15.77;;;;;;;;;;6594631;28;20168;-81
2022/11/01 10:06:31;;;;;;;18.03;15.33;;;;;;;;;;6594663;28;20165;-82
2022/11/01 10:09:46;;;;;;;19.57;16.13;;;;;;;;;;6596112;28;20200;-81
2022/11/01 10:12:59;;;;;;;20.10;15.40;;;;;;;;;;6597326;28;20243;-81
2022/11/01 10:16:14;;;;;;;20.73;15.83;;;;;;;;;;6596553;28;20255;-81
2022/11/01 10:19:29;;;;;;;20.93;15.37;;;;;;;;;;6595169;28;20725;-80
2022/11/01 10:22:41;;;;;;;19.17;15.10;;;;;;;;;;6595962;28;20617;-81
2022/11/01 10:25:53;;;;;;;20.23;15.70;;;;;;;;;;6595857;28;20633;-80
2022/11/01 10:29:08;;;;;;;17.70;15.43;;;;;;;;;;6596299;28;20659;-81
2022/11/01 10:32:26;;;;;;;19.37;15.53;;;;;;;;;;6596182;28;20207;-81
2022/11/01 10:35:39;;;;;;;18.30;15.17;;;;;;;;;;6595987;28;20180;-81
2022/11/01 10:38:53;;;;;;;18.80;14.80;;;;;;;;;;6601505;28;20522;-82
2022/11/01 10:42:07;;;;;;;19.77;15.70;;;;;;;;;;6601256;28;20423;-82
2022/11/01 10:45:19;;;;;;;18.53;15.10;;;;;;;;;;6601870;28;20223;-83
2022/11/01 10:48:32;;;;;;;20.80;15.47;;;;;;;;;;6601451;28;20195;-82
2022/11/01 10:51:43;;;;;;;18.47;15.13;;;;;;;;;;6601152;28;20215;-81
2022/11/01 10:54:55;;;;;;;19.73;15.83;;;;;;;;;;6601084;28;20172;-82
2022/11/01 10:58:10;;;;;;;19.77;15.47;;;;;;;;;;6611687;28;20230;-82
2022/11/01 11:01:23;;;;;;;17.80;15.47;;;;;;;;;;6627805;28;20164;-82
2022/11/01 11:04:33;;;;;;;20.07;16.03;;;;;;;;;;6626811;28;20172;-81
2022/11/01 11:07:44;;;;;;;25.97;20.73;;;;;;;;;;6626722;28;20569;-81
2022/11/01 11:10:56;;;;;;;23.23;17.77;;;;;;;;;;6626411;28;20199;-81
2022/11/01 11:14:07;;;;;;;20.20;17.10;;;;;;;;;;6626593;28;20302;-82
2022/11/01 11:17:20;;;;;;;21.40;17.60;;;;;;;;;;6608367;28;20659;-83
2022/11/01 11:20:32;;;;;;;20.83;18.00;;;;;;;;;;6626153;28;20179;-81
2022/11/01 11:23:44;;;;;;;21.30;18.13;;;;;;;;;;6626239;28;20168;-81
2022/11/01 11:26:55;;;;;;;22.37;18.07;;;;;;;;;;6626660;28;20254;-81
2022/11/01 11:30:07;;;;;;;22.20;17.63;;;;;;;;;;6626365;28;20229;-81
2022/11/01 11:33:19;;;;;;;19.80;17.60;;;;;;;;;;6626340;28;20629;-82
2022/11/01 11:36:29;;;;;;;26.23;21.00;;;;;;;;;;6626554;28;20289;-81
2022/11/01 11:39:40;;;;;;;23.40;18.93;;;;;;;;;;6625861;28;20255;-80
2022/11/01 11:42:52;;;;;;;26.97;19.20;;;;;;;;;;6625831;28;20172;-80
2022/11/01 11:46:11;;;;;;;25.27;19.47;;;;;;;;;;6624773;28;20183;-80
2022/11/01 11:49:25;;;;;;;24.57;19.60;;;;;;;;;;6624645;28;20213;-80
2022/11/01 11:52:38;;;;;;;25.57;19.43;;;;;;;;;;6622978;28;20199;-81
2022/11/01 11:55:53;;;;;;;24.67;19.67;;;;;;;;;;6608141;28;20683;-80
2022/11/01 11:59:05;;;;;;;20.77;17.73;;;;;;;;;;6626031;28;20231;-80
2022/11/01 12:02:18;;;;;;;22.50;18.00;;;;;;;;;;6625936;28;20187;-82
2022/11/01 12:05:28;;;;;;;21.10;17.87;;;;;;;;;;6625959;28;20167;-81
2022/11/01 12:08:52;;;;;;;19.77;16.40;;;;;;;;;;6625318;28;20202;-80
2022/11/01 12:12:07;;;;;;;19.70;17.17;;;;;;;;;;6626218;28;20208;-80
2022/11/01 12:15:25;;;;;;;21.00;18.03;;;;;;;;;;6625351;28;20168;-80
2022/11/01 12:18:44;;;;;;;24.83;19.20;;;;;;;;;;6625369;28;20168;-80
2022/11/01 12:22:00;;;;;;;22.23;19.23;;;;;;;;;;6625483;28;20164;-80
2022/11/01 12:25:13;;;;;;;20.27;16.93;;;;;;;;;;6625617;28;20216;-82
2022/11/01 12:28:28;;;;;;;22.33;18.10;;;;;;;;;;6625072;28;20175;-81
2022/11/01 12:31:41;;;;;;;26.63;21.13;;;;;;;;;;6625379;28;20286;-80
2022/11/01 12:34:52;;;;;;;24.60;18.77;;;;;;;;;;6625113;28;20168;-80
2022/11/01 12:38:19;;;;;;;24.80;18.67;;;;;;;;;;6625069;28;20167;-80
2022/11/01 12:41:36;;;;;;;23.17;19.00;;;;;;;;;;6625749;28;20156;-80
2022/11/01 12:44:48;;;;;;;20.60;18.40;;;;;;;;;;6624361;28;20180;-80
2022/11/01 12:48:07;;;;;;;24.37;19.50;;;;;;;;;;6624534;28;20180;-80
2022/11/01 12:51:33;;;;;;;24.33;19.97;;;;;;;;;;6624700;28;20218;-80
2022/11/01 12:55:03;;;;;;;27.17;20.03;;;;;;;;;;6624801;28;20176;-80
2022/11/01 12:58:15;;;;;;;24.87;21.10;;;;;;;;;;6623979;28;20219;-80
2022/11/01 13:01:28;;;;;;;21.70;18.07;;;;;;;;;;6623876;28;20231;-80
2022/11/01 13:04:51;;;;;;;20.80;17.80;;;;;;;;;;6624135;28;20175;-80
2022/11/01 13:08:07;;;;;;;22.83;18.00;;;;;;;;;;6623971;28;20208;-80
2022/11/01 13:11:30;;;;;;;25.10;19.70;;;;;;;;;;6623813;28;20195;-81
2022/11/01 13:14:59;;;;;;;26.20;19.27;;;;;;;;;;6622998;28;20523;-80
2022/11/01 13:18:28;;;;;;;25.30;19.27;;;;;;;;;;6622577;28;20180;-80
2022/11/01 13:21:51;;;;;;;25.77;19.93;;;;;;;;;;6622933;28;20176;-80
2022/11/01 13:25:08;;;;;;;24.10;19.13;;;;;;;;;;6622415;28;20172;-80
2022/11/01 13:28:24;;;;;;;26.40;20.33;;;;;;;;;;6623553;28;20242;-80
2022/11/01 13:31:41;;;;;;;23.10;18.63;;;;;;;;;;6624251;28;20298;-81
2022/11/01 13:35:10;;;;;;;30.20;21.27;;;;;;;;;;6622840;28;20638;-82
2022/11/01 13:38:23;;;;;;;24.03;18.90;;;;;;;;;;6622736;28;20313;-81
2022/11/01 13:41:33;;;;;;;24.80;18.97;;;;;;;;;;6623170;28;20210;-80
2022/11/01 13:44:49;;;;;;;27.03;20.63;;;;;;;;;;6622585;28;20612;-81
2022/11/01 13:48:18;;;;;;;26.00;19.07;;;;;;;;;;6623199;28;20251;-80
2022/11/01 13:51:36;;;;;;;28.67;20.97;;;;;;;;;;6622675;28;20195;-81
2022/11/01 13:54:53;;;;;;;25.50;19.60;;;;;;;;;;6622719;28;20164;-81
2022/11/01 13:58:04;;;;;;;26.23;20.63;;;;;;;;;;6622775;28;20289;-81
2022/11/01 14:01:31;;;;;;;29.20;20.83;;;;;;;;;;6622275;28;20214;-81
2022/11/01 14:04:53;;;;;;;26.53;20.77;;;;;;;;;;6604503;28;20629;-82
2022/11/01 14:08:03;;;;;;;29.47;21.17;;;;;;;;;;6623253;28;20544;-82
2022/11/01 14:11:33;;;;;;;29.97;21.93;;;;;;;;;;6604299;28;20219;-81
2022/11/01 14:14:45;;;;;;;29.97;21.87;;;;;;;;;;6608357;28;20204;-81
2022/11/01 14:18:03;;;;;;;28.27;21.57;;;;;;;;;;6622751;28;20591;-81
2022/11/01 14:21:21;;;;;;;29.40;21.57;;;;;;;;;;6621795;28;20190;-81
2022/11/01 14:24:31;;;;;;;33.67;22.27;;;;;;;;;;6622289;28;20182;-82
2022/11/01 14:27:43;;;;;;;32.07;23.17;;;;;;;;;;6622359;28;20172;-82
2022/11/01 14:30:53;;;;;;;28.77;21.87;;;;;;;;;;6622118;28;20176;-83
2022/11/01 14:34:08;;;;;;;29.10;20.90;;;;;;;;;;6621497;28;20180;-82
2022/11/01 14:37:21;;;;;;;28.33;20.53;;;;;;;;;;6621917;28;20207;-81
2022/11/01 14:40:31;;;;;;;26.43;19.20;;;;;;;;;;6623152;28;20172;-80
2022/11/01 14:43:44;;;;;;;27.73;20.30;;;;;;;;;;6621624;28;20274;-82
2022/11/01 14:46:55;;;;;;;31.37;21.53;;;;;;;;;;6621941;28;20172;-82
2022/11/01 14:50:14;;;;;;;29.90;21.93;;;;;;;;;;6621255;28;20225;-85
2022/11/01 14:53:27;;;;;;;34.27;22.80;;;;;;;;;;6603786;28;20560;-85
2022/11/01 14:56:38;;;;;;;33.73;21.90;;;;;;;;;;6621315;28;20178;-87
2022/11/01 14:59:48;;;;;;;33.90;22.10;;;;;;;;;;6622253;28;20227;-85
2022/11/01 15:02:59;;;;;;;40.07;26.23;;;;;;;;;;6620877;28;20212;-85
2022/11/01 15:06:36;;;;;;;35.77;25.53;;;;;;;;;;6621517;28;20229;-81
2022/11/01 15:10:00;;;;;;;30.77;21.17;;;;;;;;;;6617957;28;20667;-82
2022/11/01 15:13:14;;;;;;;29.13;21.70;;;;;;;;;;6621814;28;20192;-81
2022/11/01 15:16:25;;;;;;;31.57;22.73;;;;;;;;;;6620592;28;20176;-80
2022/11/01 15:19:36;;;;;;;26.73;20.37;;;;;;;;;;6621804;28;20164;-81
2022/11/01 15:22:47;;;;;;;31.23;22.70;;;;;;;;;;6620805;28;20172;-81
2022/11/01 15:25:59;;;;;;;42.87;26.83;;;;;;;;;;6626606;28;20208;-80
2022/11/01 15:29:12;;;;;;;28.97;21.43;;;;;;;;;;6626204;28;20167;-80
2022/11/01 15:32:24;;;;;;;29.93;22.20;;;;;;;;;;6625749;28;20570;-80
2022/11/01 15:35:35;;;;;;;33.77;24.63;;;;;;;;;;6624828;28;20176;-81
2022/11/01 15:38:50;;;;;;;33.30;22.67;;;;;;;;;;6626768;28;20520;-80
2022/11/01 15:42:11;;;;;;;28.87;21.50;;;;;;;;;;6625487;28;20214;-81
2022/11/01 15:45:32;;;;;;;29.67;21.20;;;;;;;;;;6625102;28;20157;-80
2022/11/01 15:48:43;;;;;;;34.47;22.50;;;;;;;;;;6625835;28;20175;-81
2022/11/01 15:51:55;;;;;;;30.53;21.30;;;;;;;;;;6625539;28;20191;-81
2022/11/01 15:55:11;;;;;;;31.17;22.33;;;;;;;;;;6626251;28;20313;-80
2022/11/01 15:58:45;;;;;;;34.67;24.53;;;;;;;;;;6625773;28;20568;-81
2022/11/01 16:01:57;;;;;;;31.67;23.13;;;;;;;;;;6614603;28;20202;-82
2022/11/01 16:05:11;;;;;;;31.63;22.63;;;;;;;;;;6626771;28;20176;-82
2022/11/01 16:08:24;;;;;;;36.93;25.33;;;;;;;;;;6625490;28;20664;-81
2022/11/01 16:11:35;;;;;;;39.77;29.17;;;;;;;;;;6625782;28;20261;-81
2022/11/01 16:14:59;;;;;;;40.63;29.37;;;;;;;;;;6626159;28;20171;-81
2022/11/01 16:18:14;;;;;;;40.33;27.63;;;;;;;;;;6624998;28;20258;-80
2022/11/01 16:21:29;;;;;;;39.03;26.03;;;;;;;;;;6624883;28;20187;-80
2022/11/01 16:24:39;;;;;;;33.27;23.77;;;;;;;;;;6625096;28;20306;-80
2022/11/01 16:27:52;;;;;;;43.00;27.37;;;;;;;;;;6625245;28;20176;-81
2022/11/01 16:31:03;;;;;;;41.80;26.03;;;;;;;;;;6624755;28;20211;-82
2022/11/01 16:34:23;;;;;;;42.37;28.00;;;;;;;;;;6624619;28;20180;-81
2022/11/01 16:37:33;;;;;;;47.60;28.57;;;;;;;;;;6624384;28;20247;-81
2022/11/01 16:40:44;;;;;;;42.53;28.47;;;;;;;;;;6624828;28;20175;-81
2022/11/01 16:43:55;;;;;;;42.03;28.27;;;;;;;;;;6623852;28;20221;-81
2022/11/01 16:47:08;;;;;;;45.53;28.53;;;;;;;;;;6624410;28;20271;-80
2022/11/01 16:50:22;;;;;;;55.57;31.03;;;;;;;;;;6606540;28;20176;-81
2022/11/01 16:53:32;;;;;;;54.97;35.40;;;;;;;;;;6623600;28;20203;-81
2022/11/01 16:56:49;;;;;;;50.17;33.40;;;;;;;;;;6624420;28;20187;-81
2022/11/01 17:00:00;;;;;;;56.70;34.93;;;;;;;;;;6624267;28;20310;-81
2022/11/01 17:03:14;;;;;;;48.37;31.63;;;;;;;;;;6624228;28;20225;-80
2022/11/01 17:06:25;;;;;;;44.83;31.60;;;;;;;;;;6623615;28;20176;-81
2022/11/01 17:09:36;;;;;;;48.63;32.57;;;;;;;;;;6624010;28;20195;-80
2022/11/01 17:12:46;;;;;;;45.60;31.87;;;;;;;;;;6606463;28;20235;-81
2022/11/01 17:15:57;;;;;;;46.77;31.80;;;;;;;;;;6623677;28;20175;-81
2022/11/01 17:19:10;;;;;;;45.23;31.40;;;;;;;;;;6623943;28;20218;-81
2022/11/01 17:22:23;;;;;;;45.13;30.57;;;;;;;;;;6624495;28;20567;-81
2022/11/01 17:25:33;;;;;;;357.80;154.13;;;;;;;;;;6623676;28;20203;-81
2022/11/01 17:28:44;;;;;;;265.83;123.70;;;;;;;;;;6622996;28;20709;-80
2022/11/01 17:31:54;;;;;;;201.40;100.93;;;;;;;;;;6623200;28;20199;-81
2022/11/01 17:35:05;;;;;;;119.60;63.47;;;;;;;;;;6623405;28;20175;-81
2022/11/01 17:38:18;;;;;;;70.23;43.43;;;;;;;;;;6624394;28;20182;-81
2022/11/01 17:41:28;;;;;;;48.83;32.37;;;;;;;;;;6623364;28;20172;-81
2022/11/01 17:44:39;;;;;;;54.57;36.53;;;;;;;;;;6622858;28;20174;-81
2022/11/01 17:47:53;;;;;;;56.97;38.90;;;;;;;;;;6623007;28;20560;-81
2022/11/01 17:51:04;;;;;;;54.80;38.63;;;;;;;;;;6622742;28;20284;-81
2022/11/01 17:54:14;;;;;;;46.67;31.73;;;;;;;;;;6623021;28;20188;-81
2022/11/01 17:57:25;;;;;;;41.27;28.43;;;;;;;;;;6623330;28;20306;-82
2022/11/01 18:00:38;;;;;;;39.57;26.90;;;;;;;;;;6622095;28;20636;-83
2022/11/01 18:03:48;;;;;;;42.53;28.13;;;;;;;;;;6604834;28;20187;-81
2022/11/01 18:06:59;;;;;;;41.43;26.83;;;;;;;;;;6622718;28;20258;-81
2022/11/01 18:10:26;;;;;;;46.23;31.03;;;;;;;;;;6623045;28;20553;-81
2022/11/01 18:13:40;;;;;;;41.63;30.50;;;;;;;;;;6622386;28;20195;-81
2022/11/01 18:17:03;;;;;;;48.53;34.50;;;;;;;;;;6622029;28;20518;-81
2022/11/01 18:20:20;;;;;;;54.43;35.53;;;;;;;;;;6622547;28;20251;-82
2022/11/01 18:23:30;;;;;;;57.03;37.23;;;;;;;;;;6621763;28;20160;-81
2022/11/01 18:26:43;;;;;;;57.63;38.13;;;;;;;;;;6604343;28;20183;-82
2022/11/01 18:29:53;;;;;;;56.60;35.40;;;;;;;;;;6622291;28;20191;-83
2022/11/01 18:33:19;;;;;;;50.60;31.67;;;;;;;;;;6622527;28;20191;-83
2022/11/01 18:36:52;;;;;;;53.63;31.87;;;;;;;;;;6622999;28;20570;-83
2022/11/01 18:40:17;;;;;;;47.60;29.90;;;;;;;;;;6621909;28;20182;-83
2022/11/01 18:43:29;;;;;;;45.67;27.83;;;;;;;;;;6621792;28;20263;-82
2022/11/01 18:46:43;;;;;;;46.80;28.53;;;;;;;;;;6604225;28;20755;-81
2022/11/01 18:49:55;;;;;;;44.67;27.43;;;;;;;;;;6622069;28;20167;-81